createdAt,value
2018-03-18T00:01:15.997Z,15.47
2018-03-18T00:03:43.611Z,15.48
2018-03-18T00:06:11.285Z,15.48
2018-03-18T00:08:38.934Z,15.51
2018-03-18T00:11:06.965Z,15.50
2018-03-18T00:13:34.564Z,15.47
2018-03-18T00:16:02.200Z,15.36
2018-03-18T00:18:29.842Z,15.30
2018-03-18T00:20:57.444Z,15.24
2018-03-18T00:23:25.396Z,15.19
2018-03-18T00:25:52.965Z,15.06
2018-03-18T00:28:20.558Z,14.93
2018-03-18T00:30:48.256Z,14.84
2018-03-18T00:33:15.835Z,14.70
2018-03-18T00:35:44.814Z,14.57
2018-03-18T00:38:12.706Z,14.45
2018-03-18T00:40:40.284Z,14.30
2018-03-18T00:43:07.869Z,14.24
2018-03-18T00:45:35.480Z,14.26
2018-03-18T00:48:03.056Z,14.21
2018-03-18T00:50:30.624Z,14.20
2018-03-18T00:52:58.603Z,14.22
2018-03-18T00:55:26.186Z,14.26
2018-03-18T00:57:53.771Z,14.30
2018-03-18T01:00:21.684Z,14.33
2018-03-18T01:02:50.232Z,14.33
2018-03-18T01:05:17.841Z,14.33
2018-03-18T01:07:45.531Z,14.32
2018-03-18T01:10:13.183Z,14.28
2018-03-18T01:12:40.898Z,14.26
2018-03-18T01:15:08.605Z,14.24
2018-03-18T01:17:36.861Z,14.20
2018-03-18T01:20:04.477Z,14.20
2018-03-18T01:22:32.294Z,14.21
2018-03-18T01:24:59.889Z,14.29
2018-03-18T01:27:27.529Z,14.32
2018-03-18T01:29:55.152Z,14.26
2018-03-18T01:32:22.745Z,14.21
2018-03-18T01:34:50.319Z,14.23
2018-03-18T01:37:18.157Z,14.22
2018-03-18T01:39:45.742Z,14.17
2018-03-18T01:42:13.329Z,14.18
2018-03-18T01:44:40.949Z,14.13
2018-03-18T01:47:08.531Z,14.15
2018-03-18T01:49:38.769Z,14.16
2018-03-18T01:52:06.382Z,14.20
2018-03-18T01:54:33.962Z,14.20
2018-03-18T01:57:01.537Z,14.18
2018-03-18T01:59:29.473Z,14.17
2018-03-18T02:01:57.061Z,14.14
2018-03-18T02:04:24.657Z,14.19
2018-03-18T02:06:52.282Z,14.19
2018-03-18T02:09:19.885Z,14.20
2018-03-18T02:11:48.124Z,14.27
2018-03-18T02:14:15.977Z,14.31
2018-03-18T02:16:43.570Z,14.35
2018-03-18T02:19:11.141Z,14.42
2018-03-18T02:21:39.050Z,14.46
2018-03-18T02:24:06.630Z,14.45
2018-03-18T02:26:34.224Z,14.46
2018-03-18T02:29:01.850Z,14.53
2018-03-18T02:31:29.506Z,14.66
2018-03-18T02:33:57.108Z,14.64
2018-03-18T02:36:25.016Z,14.63
2018-03-18T02:38:52.585Z,14.68
2018-03-18T02:41:20.175Z,14.66
2018-03-18T02:43:47.861Z,14.63
2018-03-18T02:46:15.442Z,14.65
2018-03-18T02:48:44.922Z,14.70
2018-03-18T02:51:13.142Z,14.76
2018-03-18T02:53:40.712Z,14.81
2018-03-18T02:56:08.293Z,14.88
2018-03-18T02:58:35.933Z,14.92
2018-03-18T03:01:03.528Z,14.97
2018-03-18T03:03:31.112Z,14.97
2018-03-18T03:05:58.748Z,14.96
2018-03-18T03:08:26.327Z,14.92
2018-03-18T03:10:53.925Z,14.89
2018-03-18T03:13:21.801Z,14.85
2018-03-18T03:15:50.517Z,14.87
2018-03-18T03:18:18.106Z,14.91
2018-03-18T03:20:46.694Z,14.95
2018-03-18T03:23:14.296Z,14.99
2018-03-18T03:25:41.896Z,15.00
2018-03-18T03:28:09.516Z,15.00
2018-03-18T03:30:38.063Z,14.96
2018-03-18T03:33:05.684Z,14.94
2018-03-18T03:35:33.308Z,14.93
2018-03-18T03:38:00.966Z,14.90
2018-03-18T03:40:28.539Z,14.88
2018-03-18T03:42:56.271Z,14.91
2018-03-18T03:45:23.848Z,14.89
2018-03-18T03:47:53.412Z,14.83
2018-03-18T03:50:21.144Z,14.77
2018-03-18T03:52:48.725Z,14.80
2018-03-18T03:55:16.303Z,14.82
2018-03-18T03:57:44.548Z,14.89
2018-03-18T04:00:12.281Z,14.94
2018-03-18T04:02:39.877Z,14.97
2018-03-18T04:05:07.510Z,15.06
2018-03-18T04:07:35.083Z,15.08
2018-03-18T04:10:02.655Z,15.14
2018-03-18T04:12:30.492Z,15.13
2018-03-18T04:14:58.071Z,15.12
2018-03-18T04:17:26.667Z,15.08
2018-03-18T04:19:54.374Z,15.09
2018-03-18T04:22:21.968Z,15.16
2018-03-18T04:24:49.643Z,15.21
2018-03-18T04:27:17.266Z,15.26
2018-03-18T04:29:44.868Z,15.27
2018-03-18T04:32:12.525Z,15.30
2018-03-18T04:34:40.422Z,15.33
2018-03-18T04:37:08.008Z,15.36
2018-03-18T04:39:35.607Z,15.36
2018-03-18T04:42:05.203Z,15.32
2018-03-18T04:44:32.792Z,15.30
2018-03-18T04:47:00.368Z,15.30
2018-03-18T04:49:27.992Z,15.26
2018-03-18T04:51:56.340Z,15.26
2018-03-18T04:54:23.922Z,15.26
2018-03-18T04:56:52.266Z,15.27
2018-03-18T04:59:20.438Z,15.27
2018-03-18T05:01:48.022Z,15.26
2018-03-18T05:04:15.874Z,15.31
2018-03-18T05:06:43.466Z,15.33
2018-03-18T05:09:11.046Z,15.39
2018-03-18T05:11:39.717Z,15.34
2018-03-18T05:14:07.360Z,15.37
2018-03-18T05:16:34.960Z,15.44
2018-03-18T05:19:03.013Z,15.47
2018-03-18T05:21:30.650Z,15.47
2018-03-18T05:23:58.233Z,15.48
2018-03-18T05:26:25.874Z,15.44
2018-03-18T05:28:53.486Z,15.42
2018-03-18T05:31:21.087Z,15.38
2018-03-18T05:33:48.750Z,15.38
2018-03-18T05:36:17.149Z,15.44
2018-03-18T05:38:44.845Z,15.48
2018-03-18T05:41:12.739Z,15.53
2018-03-18T05:43:40.318Z,15.57
2018-03-18T05:46:07.973Z,15.62
2018-03-18T05:48:35.588Z,15.67
2018-03-18T05:51:03.198Z,15.73
2018-03-18T05:53:30.768Z,15.79
2018-03-18T05:55:58.474Z,15.91
2018-03-18T05:58:26.058Z,15.98
2018-03-18T06:00:53.698Z,16.03
2018-03-18T06:03:21.589Z,16.10
2018-03-18T06:05:49.169Z,16.18
2018-03-18T06:08:16.827Z,16.30
2018-03-18T06:10:45.096Z,16.40
2018-03-18T06:13:12.778Z,16.54
2018-03-18T06:15:40.447Z,16.59
2018-03-18T06:18:08.104Z,16.72
2018-03-18T06:20:35.856Z,16.77
2018-03-18T06:23:03.463Z,16.87
2018-03-18T06:25:31.129Z,16.97
2018-03-18T06:27:58.864Z,17.06
2018-03-18T06:30:26.458Z,17.09
2018-03-18T06:32:54.308Z,17.09
2018-03-18T06:35:22.444Z,17.12
2018-03-18T06:37:50.032Z,17.20
2018-03-18T06:40:17.727Z,17.26
2018-03-18T06:42:45.301Z,17.26
2018-03-18T06:45:12.872Z,17.22
2018-03-18T06:47:40.743Z,17.24
2018-03-18T06:50:08.361Z,17.23
2018-03-18T06:52:35.949Z,17.20
2018-03-18T06:55:03.622Z,17.21
2018-03-18T06:57:31.205Z,17.19
2018-03-18T06:59:58.767Z,17.14
2018-03-18T07:02:26.396Z,17.21
2018-03-18T07:04:54.027Z,17.21
2018-03-18T07:07:21.636Z,17.21
2018-03-18T07:09:49.481Z,17.18
2018-03-18T07:12:17.063Z,17.21
2018-03-18T07:14:44.640Z,17.18
2018-03-18T07:17:12.265Z,17.23
2018-03-18T07:19:39.866Z,17.26
2018-03-18T07:22:07.670Z,17.26
2018-03-18T07:24:35.577Z,17.19
2018-03-18T07:27:03.178Z,17.16
2018-03-18T07:29:31.602Z,17.16
2018-03-18T07:31:59.243Z,17.13
2018-03-18T07:34:26.816Z,17.08
2018-03-18T07:36:54.436Z,17.11
2018-03-18T07:39:22.071Z,17.06
2018-03-18T07:41:49.710Z,17.05
2018-03-18T07:44:17.305Z,17.05
2018-03-18T07:46:44.993Z,17.04
2018-03-18T07:49:13.529Z,16.98
2018-03-18T07:51:43.242Z,16.98
2018-03-18T07:54:10.886Z,16.97
2018-03-18T07:56:38.459Z,16.95
2018-03-18T07:59:06.028Z,16.91
2018-03-18T08:01:33.662Z,16.86
2018-03-18T08:04:01.252Z,16.87
2018-03-18T08:06:28.897Z,16.88
2018-03-18T08:08:56.598Z,16.91
2018-03-18T08:11:24.169Z,16.99
2018-03-18T08:13:52.092Z,17.04
2018-03-18T08:16:19.716Z,17.08
2018-03-18T08:18:47.310Z,17.13
2018-03-18T08:21:14.970Z,17.12
2018-03-18T08:23:42.942Z,17.13
2018-03-18T08:26:10.525Z,17.07
2018-03-18T08:28:38.113Z,17.08
2018-03-18T08:31:05.988Z,17.09
2018-03-18T08:33:33.588Z,17.14
2018-03-18T08:36:01.175Z,17.18
2018-03-18T08:38:28.791Z,17.17
2018-03-18T08:40:56.417Z,17.14
2018-03-18T08:43:24.004Z,17.15
2018-03-18T08:45:51.628Z,17.12
2018-03-18T08:48:19.204Z,17.17
2018-03-18T08:50:46.839Z,17.18
2018-03-18T08:53:14.502Z,17.20
2018-03-18T08:55:43.064Z,17.08
2018-03-18T08:58:10.716Z,16.95
2018-03-18T09:00:38.372Z,16.87
2018-03-18T09:03:05.948Z,16.79
2018-03-18T09:05:33.599Z,16.77
2018-03-18T09:08:01.239Z,16.73
2018-03-18T09:10:28.815Z,16.67
2018-03-18T09:12:56.423Z,16.71
2018-03-18T09:15:24.166Z,16.80
2018-03-18T09:17:51.742Z,16.84
2018-03-18T09:20:19.366Z,16.86
2018-03-18T09:22:46.988Z,16.90
2018-03-18T09:25:14.656Z,16.98
2018-03-18T09:27:42.328Z,16.98
2018-03-18T09:30:10.036Z,17.01
2018-03-18T09:32:37.663Z,17.01
2018-03-18T09:35:05.298Z,17.08
2018-03-18T09:37:33.155Z,17.18
2018-03-18T09:40:00.845Z,17.22
2018-03-18T09:42:28.429Z,17.25
2018-03-18T09:44:56.076Z,17.26
2018-03-18T09:47:23.671Z,17.28
2018-03-18T09:49:51.264Z,17.17
2018-03-18T09:52:18.962Z,17.14
2018-03-18T09:54:46.553Z,17.11
2018-03-18T09:57:14.148Z,17.08
2018-03-18T09:59:41.866Z,17.10
2018-03-18T10:02:09.445Z,17.13
2018-03-18T10:04:37.078Z,17.16
2018-03-18T10:07:04.724Z,17.08
2018-03-18T10:09:32.303Z,17.05
2018-03-18T10:11:59.912Z,17.15
2018-03-18T10:14:27.728Z,17.23
2018-03-18T10:16:55.371Z,17.29
2018-03-18T10:19:22.958Z,17.30
2018-03-18T10:21:50.593Z,17.36
2018-03-18T10:24:18.245Z,17.40
2018-03-18T10:26:46.085Z,17.42
2018-03-18T10:29:13.755Z,17.41
2018-03-18T10:31:41.359Z,17.43
2018-03-18T10:34:09.009Z,17.35
2018-03-18T10:36:36.631Z,17.31
2018-03-18T10:39:05.240Z,17.33
2018-03-18T10:41:32.890Z,17.35
2018-03-18T10:44:00.539Z,17.25
2018-03-18T10:46:28.104Z,17.24
2018-03-18T10:48:55.701Z,17.27
2018-03-18T10:51:23.582Z,17.29
2018-03-18T10:53:51.171Z,17.33
2018-03-18T10:56:18.820Z,17.36
2018-03-18T10:58:46.462Z,17.36
2018-03-18T11:01:19.572Z,17.32
2018-03-18T11:06:44.541Z,17.34
2018-03-18T11:09:13.150Z,17.33
2018-03-18T11:11:40.987Z,17.36
2018-03-18T11:14:13.827Z,17.39
2018-03-18T11:16:49.973Z,17.39
2018-03-18T11:19:28.964Z,17.36
2018-03-18T11:34:23.970Z,17.45
2018-03-18T11:36:51.610Z,17.48
2018-03-18T11:39:19.273Z,17.52
2018-03-18T11:41:46.913Z,17.54
2018-03-18T11:44:14.586Z,17.55
2018-03-18T11:46:42.295Z,17.58
2018-03-18T11:49:09.925Z,17.59
2018-03-18T11:51:37.666Z,17.59
2018-03-18T11:54:05.292Z,17.58
2018-03-18T11:56:32.881Z,17.58
2018-03-18T11:59:00.720Z,17.62
2018-03-18T12:01:28.369Z,17.67
2018-03-18T12:03:55.966Z,17.64
2018-03-18T12:06:23.827Z,17.66
2018-03-18T12:09:00.275Z,17.65
2018-03-18T12:11:27.912Z,17.65
2018-03-18T12:13:55.512Z,17.68
2018-03-18T12:16:23.105Z,17.69
2018-03-18T12:18:50.813Z,17.66
2018-03-18T12:21:18.398Z,17.53
2018-03-18T12:23:45.990Z,17.47
2018-03-18T12:26:13.639Z,17.45
2018-03-18T12:28:41.566Z,17.41
2018-03-18T12:31:09.132Z,17.33
2018-03-18T12:33:37.141Z,17.30
2018-03-18T12:36:04.782Z,17.30
2018-03-18T12:38:32.379Z,17.27
2018-03-18T12:41:00.256Z,17.28
2018-03-18T12:43:29.636Z,17.28
2018-03-18T12:45:57.288Z,17.27
2018-03-18T12:48:24.956Z,17.26
2018-03-18T12:50:52.650Z,17.23
2018-03-18T12:53:20.336Z,17.18
2018-03-18T12:55:48.021Z,17.12
2018-03-18T12:58:15.668Z,17.05
2018-03-18T13:00:43.329Z,16.94
2018-03-18T13:03:11.367Z,16.84
2018-03-18T13:05:38.960Z,16.78
2018-03-18T13:08:06.540Z,16.71
2018-03-18T13:10:34.180Z,16.65
2018-03-18T13:13:01.775Z,16.62
2018-03-18T13:15:29.363Z,16.58
2018-03-18T13:17:58.010Z,16.51
2018-03-18T13:20:25.628Z,16.43
2018-03-18T13:22:53.209Z,16.33
2018-03-18T13:25:20.853Z,16.25
2018-03-18T13:27:48.448Z,16.16
2018-03-18T13:30:16.141Z,16.09
2018-03-18T13:32:43.992Z,16.04
2018-03-18T13:35:11.573Z,15.91
2018-03-18T13:37:39.180Z,15.82
2018-03-18T13:40:06.802Z,15.73
2018-03-18T13:42:34.424Z,15.66
2018-03-18T13:45:02.006Z,15.57
2018-03-18T13:47:29.715Z,15.53
2018-03-18T13:49:57.327Z,15.54
2018-03-18T13:52:24.946Z,15.55
2018-03-18T13:54:52.572Z,15.48
2018-03-18T13:57:20.168Z,15.42
2018-03-18T13:59:47.758Z,15.31
2018-03-18T14:02:15.412Z,15.21
2018-03-18T14:04:43.008Z,15.19
2018-03-18T14:07:10.618Z,15.15
2018-03-18T14:09:39.672Z,15.10
2018-03-18T14:12:07.276Z,15.07
2018-03-18T14:14:34.942Z,15.07
2018-03-18T14:17:02.574Z,15.01
2018-03-18T14:19:30.178Z,14.92
2018-03-18T14:21:57.805Z,14.77
2018-03-18T14:24:25.792Z,14.69
2018-03-18T14:26:53.527Z,14.65
2018-03-18T14:29:21.115Z,14.49
2018-03-18T14:31:48.856Z,14.35
2018-03-18T14:34:16.442Z,14.26
2018-03-18T14:36:44.042Z,14.16
2018-03-18T14:39:11.690Z,14.14
2018-03-18T14:41:39.337Z,14.06
2018-03-18T14:44:07.852Z,14.05
2018-03-18T14:46:35.502Z,14.02
2018-03-18T14:49:03.118Z,14.00
2018-03-18T14:51:30.709Z,14.00
2018-03-18T14:53:58.378Z,14.04
2018-03-18T14:56:25.993Z,14.07
2018-03-18T14:58:54.049Z,14.08
2018-03-18T15:01:21.698Z,14.04
2018-03-18T15:03:49.293Z,14.04
2018-03-18T15:06:16.877Z,14.07
2018-03-18T15:08:44.802Z,14.16
2018-03-18T15:11:13.372Z,14.23
2018-03-18T15:13:40.968Z,14.35
2018-03-18T15:16:08.615Z,14.46
2018-03-18T15:18:36.205Z,14.59
2018-03-18T15:21:03.862Z,14.67
2018-03-18T15:23:31.517Z,14.79
2018-03-18T15:25:59.095Z,14.88
2018-03-18T15:28:26.676Z,14.92
2018-03-18T15:30:54.372Z,14.93
2018-03-18T15:33:22.159Z,14.97
2018-03-18T15:35:49.730Z,15.04
2018-03-18T15:38:17.363Z,15.13
2018-03-18T15:40:44.959Z,15.24
2018-03-18T15:43:13.137Z,15.22
2018-03-18T15:45:41.026Z,15.12
2018-03-18T15:48:08.606Z,15.14
2018-03-18T15:50:36.180Z,14.97
2018-03-18T15:53:04.103Z,14.84
2018-03-18T15:55:31.737Z,14.77
2018-03-18T15:57:59.331Z,14.72
2018-03-18T16:00:27.007Z,14.68
2018-03-18T16:02:54.634Z,14.61
2018-03-18T16:05:22.324Z,14.60
2018-03-18T16:07:49.958Z,14.58
2018-03-18T16:10:17.599Z,14.52
2018-03-18T16:12:45.173Z,14.56
2018-03-18T16:15:12.865Z,14.56
2018-03-18T16:17:40.478Z,14.56
2018-03-18T16:20:08.066Z,14.51
2018-03-18T16:22:35.717Z,14.53
2018-03-18T16:25:03.348Z,14.59
2018-03-18T16:27:30.937Z,14.61
2018-03-18T16:30:10.521Z,14.63
2018-03-18T16:32:38.202Z,14.62
2018-03-18T16:35:05.881Z,14.64
2018-03-18T16:37:33.589Z,14.63
2018-03-18T16:40:01.790Z,14.63
2018-03-18T16:42:29.377Z,14.62
2018-03-18T16:44:57.162Z,14.64
2018-03-18T16:47:26.002Z,14.63
2018-03-18T16:49:53.842Z,14.64
2018-03-18T16:52:21.623Z,14.61
2018-03-18T16:54:49.596Z,14.54
2018-03-18T16:57:17.487Z,14.49
2018-03-18T16:59:45.434Z,14.48
2018-03-18T17:02:13.446Z,14.47
2018-03-18T17:04:41.366Z,14.45
2018-03-18T17:07:09.535Z,14.35
2018-03-18T17:09:37.499Z,14.28
2018-03-18T17:12:05.412Z,14.18
2018-03-18T17:14:34.204Z,14.16
2018-03-18T17:17:02.179Z,14.15
2018-03-18T17:19:30.081Z,14.06
2018-03-18T17:21:58.030Z,14.03
2018-03-18T17:24:25.916Z,14.02
2018-03-18T17:26:53.786Z,14.03
2018-03-18T17:29:21.725Z,14.00
2018-03-18T17:31:49.614Z,13.94
2018-03-18T17:34:17.543Z,13.96
2018-03-18T17:36:45.535Z,13.88
2018-03-18T17:39:14.057Z,13.82
2018-03-18T17:41:41.981Z,13.79
2018-03-18T17:44:10.191Z,13.73
2018-03-18T17:46:50.014Z,13.59
2018-03-18T17:49:29.862Z,13.49
2018-03-18T17:52:09.588Z,13.31
2018-03-18T17:54:49.282Z,13.26
2018-03-18T17:57:17.267Z,13.17
2018-03-18T17:59:45.157Z,13.13
2018-03-18T18:02:13.135Z,13.15
2018-03-18T18:04:41.051Z,13.20
2018-03-18T18:07:09.025Z,13.20
2018-03-18T18:09:37.034Z,13.19
2018-03-18T18:12:04.982Z,13.15
2018-03-18T18:14:32.870Z,13.14
2018-03-18T18:17:01.173Z,13.16
2018-03-18T18:19:29.096Z,13.15
2018-03-18T18:21:56.998Z,13.13
2018-03-18T18:24:24.908Z,13.15
2018-03-18T18:26:54.418Z,13.14
2018-03-18T18:29:22.303Z,13.16
2018-03-18T18:31:50.280Z,13.15
2018-03-18T18:34:18.200Z,13.15
2018-03-18T18:36:46.253Z,13.18
2018-03-18T18:39:14.183Z,13.21
2018-03-18T18:41:42.099Z,13.24
2018-03-18T18:44:10.017Z,13.27
2018-03-18T18:46:37.944Z,13.21
2018-03-18T18:49:05.878Z,13.16
2018-03-18T18:51:33.819Z,13.21
2018-03-18T18:54:02.004Z,13.26
2018-03-18T18:56:29.889Z,13.23
2018-03-18T18:58:57.789Z,13.17
2018-03-18T19:01:25.737Z,13.08
2018-03-18T19:03:53.631Z,12.82
2018-03-18T19:06:21.523Z,12.69
2018-03-18T19:08:49.868Z,12.61
2018-03-18T19:11:17.883Z,12.38
2018-03-18T19:13:45.767Z,12.20
2018-03-18T19:16:13.732Z,11.75
2018-03-18T19:18:41.676Z,11.41
2018-03-18T19:21:09.540Z,10.88
2018-03-18T19:23:37.476Z,10.39
2018-03-18T19:26:05.406Z,10.37
2018-03-18T19:28:33.283Z,10.17
2018-03-18T19:31:01.199Z,10.02
2018-03-18T19:33:29.065Z,9.97
2018-03-18T19:35:56.937Z,9.90
2018-03-18T19:38:24.983Z,9.90
2018-03-18T19:40:53.638Z,9.59
2018-03-18T19:43:22.105Z,9.58
2018-03-18T19:45:50.034Z,9.63
2018-03-18T19:48:17.944Z,9.71
2018-03-18T19:50:45.904Z,9.66
2018-03-18T19:53:13.834Z,9.75
2018-03-18T19:55:41.796Z,9.58
2018-03-18T19:58:09.680Z,9.67
2018-03-18T20:00:37.694Z,9.69
2018-03-18T20:03:05.582Z,9.72
2018-03-18T20:05:33.514Z,9.73
2018-03-18T20:08:01.689Z,9.56
2018-03-18T20:10:29.613Z,9.32
2018-03-18T20:12:57.495Z,9.39
2018-03-18T20:15:25.740Z,9.40
2018-03-18T20:17:56.456Z,9.21
2018-03-18T20:20:24.363Z,9.18
2018-03-18T20:22:52.315Z,9.10
2018-03-18T20:25:20.166Z,9.08
2018-03-18T20:27:48.057Z,9.11
2018-03-18T20:30:16.033Z,8.87
2018-03-18T20:32:43.912Z,8.92
2018-03-18T20:35:11.867Z,8.94
2018-03-18T20:37:39.811Z,8.95
2018-03-18T20:40:07.961Z,8.76
2018-03-18T20:42:35.857Z,8.65
2018-03-18T20:45:04.026Z,8.46
2018-03-18T20:47:31.859Z,8.35
2018-03-18T20:49:59.751Z,8.45
2018-03-18T20:52:27.726Z,8.38
2018-03-18T20:54:55.596Z,8.27
2018-03-18T20:57:23.541Z,8.34
2018-03-18T20:59:51.451Z,8.25
2018-03-18T21:02:19.325Z,8.12
2018-03-18T21:04:47.198Z,7.93
2018-03-18T21:07:15.093Z,7.68
2018-03-18T21:09:42.846Z,7.70
2018-03-18T21:12:10.665Z,7.61
2018-03-18T21:14:38.540Z,7.68
2018-03-18T21:17:06.228Z,7.83
2018-03-18T21:19:33.909Z,7.84
2018-03-18T21:22:01.722Z,7.89
2018-03-18T21:24:29.359Z,7.93
2018-03-18T21:26:57.021Z,7.86
2018-03-18T21:29:24.773Z,7.94
2018-03-18T21:31:52.378Z,8.05
2018-03-18T21:34:20.028Z,8.09
2018-03-18T21:36:47.661Z,7.97
2018-03-18T21:39:15.227Z,7.97
2018-03-18T21:41:43.046Z,7.95
2018-03-18T21:44:10.681Z,7.78
2018-03-18T21:46:38.320Z,7.75
2018-03-18T21:49:05.900Z,7.72
2018-03-18T21:51:33.537Z,7.73
2018-03-18T21:54:01.093Z,7.69
2018-03-18T21:56:28.714Z,7.75
2018-03-18T21:58:56.416Z,7.61
2018-03-18T22:01:24.040Z,7.62
2018-03-18T22:03:51.602Z,7.59
2018-03-18T22:06:19.434Z,7.62
2018-03-18T22:08:47.019Z,7.70
2018-03-18T22:11:14.594Z,7.73
2018-03-18T22:13:42.232Z,7.81
2018-03-18T22:16:09.808Z,7.77
2018-03-18T22:18:37.409Z,7.78
2018-03-18T22:21:05.119Z,7.76
2018-03-18T22:23:32.694Z,7.78
2018-03-18T22:26:00.272Z,7.78
2018-03-18T22:28:27.924Z,7.68
2018-03-18T22:30:55.511Z,7.60
2018-03-18T22:33:23.090Z,7.46
2018-03-18T22:35:50.986Z,7.32
2018-03-18T22:38:18.561Z,7.26
2018-03-18T22:40:46.816Z,7.23
2018-03-18T22:43:14.601Z,7.12
2018-03-18T22:45:42.182Z,7.03
2018-03-18T22:48:09.736Z,7.02
2018-03-18T22:50:37.370Z,6.97
2018-03-18T22:53:04.946Z,6.94
2018-03-18T22:55:32.524Z,6.92
2018-03-18T22:58:00.222Z,6.85
2018-03-18T23:00:27.857Z,6.89
2018-03-18T23:02:55.502Z,6.92
2018-03-18T23:05:23.351Z,6.98
2018-03-18T23:07:50.988Z,6.93
2018-03-18T23:10:18.613Z,6.83
2018-03-18T23:12:46.241Z,6.58
2018-03-18T23:15:13.817Z,6.53
2018-03-18T23:17:41.480Z,6.44
2018-03-18T23:20:09.098Z,6.38
2018-03-18T23:22:36.745Z,6.23
2018-03-18T23:25:04.347Z,6.17
2018-03-18T23:27:32.009Z,6.08
2018-03-18T23:29:59.582Z,6.09
2018-03-18T23:32:27.210Z,6.00
2018-03-18T23:34:54.930Z,5.96
2018-03-18T23:37:22.506Z,5.98
2018-03-18T23:39:50.085Z,5.82
2018-03-18T23:42:17.733Z,5.90
2018-03-18T23:44:45.809Z,5.93
2018-03-18T23:47:13.392Z,5.88
2018-03-18T23:49:41.031Z,5.73
2018-03-18T23:52:08.596Z,5.56
2018-03-18T23:54:36.228Z,5.48
2018-03-18T23:57:03.873Z,5.47
2018-03-18T23:59:31.464Z,5.47
